KBCE/BCE METAR and TAF weather

Enter ICAO airport designator
Station Type Date Time Source
KBCE METAR 2021/01/17 18:53 UTC NOAA

KBCE 171853Z AUTO 32003KT 10SM CLR 07/M16 A3028 RMK AO2 SLP223 T00671161 $


Station Type Date Time Source
KBCE Decoded METAR 2021/01/17 18:53 UTC NOAA

BRYCE CANYON AIRPORT, UT, United States (KBCE) 37-42N 112-09W 2312M
Jan 17, 2021 - 01:53 PM EST / 2021.01.17 1853 UTC
Wind: from the NW (320 degrees) at 3 MPH (3 KT):0
Visibility: 10 mile(s):0
Sky conditions: clear
Temperature: 44.1 F (6.7 C)
Dew Point: 3.0 F (-16.1 C)
Relative Humidity: 17%
Pressure (altimeter): 30.28 in. Hg (1025 hPa)
ob: KBCE 171853Z AUTO 32003KT 10SM CLR 07/M16 A3028 RMK AO2 SLP223 T00671161
cycle: 19

Station Type Date Time Source
KBCE TAF 2021/01/17 18:22 UTC NOAA

TAF KBCE 171720Z 1718/1818 29004KT P6SM BKN250
FM171900 33008KT P6SM SCT180

Example: see airport list